Time;durP1;ratioP1;P1;durP2;ratioP2;P2;SDS_P1;SDS_P2;PMS_P1;PMS_P2;Temp;Humidity;BMP_temperature;BMP_pressure;BME280_temperature;BME280_humidity;BME280_pressure;Samples;Min_cycle;Max_cycle;Signal;HPM_P1;HPM_P2
2020/12/31 00:00:05;576031.00;1.92;992.85;19879.00;0.07;35.06;;;;;24.10;39.40;;;;;;2243931;61;7283;-69
2020/12/31 00:02:32;837415.00;2.79;1446.46;0.00;0.00;0.62;;;;;24.10;39.30;;;;;;2239446;61;7571;-69
2020/12/31 00:04:58;395103.00;1.32;681.39;0.00;0.00;0.62;;;;;24.10;39.40;;;;;;2243274;61;7437;-69
2020/12/31 00:07:24;622015.00;2.07;1072.25;25419.00;0.08;44.65;;;;;24.10;39.30;;;;;;2244663;61;7592;-69
2020/12/31 00:09:51;338983.00;1.13;584.93;40351.00;0.13;70.50;;;;;24.10;39.30;;;;;;2245707;61;7254;-69
2020/12/31 00:12:17;633400.00;2.11;1091.93;16804.00;0.06;29.74;;;;;24.10;39.20;;;;;;2243288;61;7627;-68
2020/12/31 00:14:43;560305.00;1.87;965.73;47706.00;0.16;83.22;;;;;24.10;39.30;;;;;;2241453;61;7395;-68
2020/12/31 00:17:10;429749.00;1.43;740.95;0.00;0.00;0.62;;;;;24.10;39.20;;;;;;2240990;61;7439;-68
2020/12/31 00:19:36;704567.00;2.35;1215.16;18617.00;0.06;32.88;;;;;24.00;39.20;;;;;;2239746;61;7604;-69
2020/12/31 00:22:10;392098.00;1.31;676.22;2750.00;0.01;5.39;;;;;24.00;39.10;;;;;;2244178;61;8126;-69
2020/12/31 00:24:37;117117400.00;390.39;65071384.00;51315.00;0.17;89.46;;;;;24.00;39.10;;;;;;2244011;61;7376;-68
2020/12/31 00:27:04;673506.00;2.25;1161.32;0.00;0.00;0.62;;;;;24.10;39.10;;;;;;2240184;61;7551;-70
2020/12/31 00:29:30;487130.00;1.62;839.67;25492.00;0.08;44.78;;;;;24.00;39.60;;;;;;2244049;61;7416;-70
2020/12/31 00:31:57;858199.00;2.86;1482.82;22772.00;0.08;40.07;;;;;24.00;39.00;;;;;;2238924;61;7480;-69
2020/12/31 00:34:23;1208244.00;4.03;2105.13;3711.00;0.01;7.05;;;;;24.00;39.00;;;;;;2243545;61;7584;-69
2020/12/31 00:36:51;479612.00;1.60;826.73;0.00;0.00;0.62;;;;;24.00;39.00;;;;;;2244422;61;7316;-69
2020/12/31 00:39:17;447919.00;1.49;772.20;0.00;0.00;0.62;;;;;24.00;38.90;;;;;;2244529;61;7472;-69
2020/12/31 00:41:44;536890.00;1.79;925.36;0.00;0.00;0.62;;;;;24.00;38.90;;;;;;2240539;61;7630;-69
2020/12/31 00:44:12;479605.00;1.60;826.72;12597.00;0.04;22.45;;;;;24.00;38.90;;;;;;2244789;61;7692;-68
2020/12/31 00:46:38;622477.00;2.07;1073.05;9642.00;0.03;17.33;;;;;24.00;38.90;;;;;;2239060;61;7615;-69
2020/12/31 00:49:04;359846.00;1.20;620.78;0.00;0.00;0.62;;;;;24.00;38.90;;;;;;2246070;61;7740;-70
2020/12/31 00:51:31;346629.00;1.16;598.07;0.00;0.00;0.62;;;;;24.00;38.90;;;;;;2241741;61;7709;-69
2020/12/31 00:53:58;590697.00;1.97;1018.16;12526.00;0.04;22.33;;;;;24.00;38.90;;;;;;2243950;61;7605;-68
2020/12/31 00:56:24;544004.00;1.81;937.62;25891.00;0.09;45.47;;;;;24.00;38.90;;;;;;2239733;61;7403;-69
2020/12/31 00:58:51;253365.00;0.84;437.74;0.00;0.00;0.62;;;;;24.00;38.90;;;;;;2246946;61;7909;-68
2020/12/31 01:01:18;268005.00;0.89;462.91;0.00;0.00;0.62;;;;;24.00;38.90;;;;;;2241822;61;7669;-69
2020/12/31 01:03:44;110335.00;0.37;191.41;0.00;0.00;0.62;;;;;24.00;38.80;;;;;;2241754;61;7630;-69
2020/12/31 01:06:11;517624.00;1.73;892.17;5041.00;0.02;9.36;;;;;24.00;38.90;;;;;;2245629;61;5829;-69
2020/12/31 01:08:37;278637.00;0.93;481.19;0.00;0.00;0.62;;;;;24.00;38.80;;;;;;2244714;61;7592;-68
2020/12/31 01:11:04;496620.00;1.66;856.00;121897.00;0.41;211.35;;;;;24.00;38.80;;;;;;2241111;61;6061;-68
2020/12/31 01:13:31;480424.00;1.60;828.13;0.00;0.00;0.62;;;;;24.00;38.80;;;;;;2244332;61;7265;-69
2020/12/31 01:15:57;929038.00;3.10;1607.18;14205.00;0.05;25.23;;;;;24.00;38.80;;;;;;2247484;61;6981;-69
2020/12/31 01:18:24;781452.00;2.60;1348.79;0.00;0.00;0.62;;;;;24.00;38.80;;;;;;2245560;61;7568;-69
2020/12/31 01:20:50;581416.00;1.94;1002.14;40863.00;0.14;71.38;;;;;24.00;38.80;;;;;;2241971;61;7378;-68
2020/12/31 01:23:16;821507.00;2.74;1418.66;21453.00;0.07;37.79;;;;;23.90;38.70;;;;;;2249123;61;7634;-70
2020/12/31 01:25:43;478953.00;1.60;825.60;33552.00;0.11;58.73;;;;;23.90;38.80;;;;;;2242254;61;7332;-69
2020/12/31 01:28:09;719411.00;2.40;1240.92;10926.00;0.04;19.55;;;;;23.90;38.70;;;;;;2242292;61;7752;-68
2020/12/31 01:30:36;654677.00;2.18;1128.73;18830.00;0.06;33.24;;;;;24.00;38.70;;;;;;2244215;61;7275;-68
2020/12/31 01:33:02;249591.00;0.83;431.25;10325.00;0.03;18.51;;;;;23.90;38.60;;;;;;2246168;61;7654;-69
2020/12/31 01:35:28;1223482.00;4.08;2132.73;0.00;0.00;0.62;;;;;23.90;38.70;;;;;;2241580;61;7970;-69
2020/12/31 01:37:55;693228.00;2.31;1195.50;49686.00;0.17;86.64;;;;;23.90;38.70;;;;;;2245730;61;5893;-69
2020/12/31 01:40:21;412705.00;1.38;711.65;5277.00;0.02;9.77;;;;;23.90;38.70;;;;;;2245774;61;5962;-69
2020/12/31 01:42:47;540494.00;1.80;931.57;0.00;0.00;0.62;;;;;23.90;38.60;;;;;;2244284;61;6132;-69
2020/12/31 01:45:17;517590.00;1.73;892.11;3483.00;0.01;6.66;;;;;23.90;38.70;;;;;;2244311;61;7538;-68
2020/12/31 01:47:43;758343.00;2.53;1308.57;32767.00;0.11;57.37;;;;;23.90;38.70;;;;;;2244875;61;7281;-70
2020/12/31 01:50:11;698757.00;2.33;1205.08;30261.00;0.10;53.03;;;;;23.90;38.60;;;;;;2245058;61;6269;-69
2020/12/31 01:52:37;595266.00;1.98;1026.05;59420.00;0.20;103.47;;;;;23.90;38.60;;;;;;2240558;61;7317;-69
2020/12/31 01:55:03;520585.00;1.74;897.27;48181.00;0.16;84.04;;;;;23.90;38.70;;;;;;2241287;61;6838;-70
2020/12/31 01:57:30;644858.00;2.15;1111.74;0.00;0.00;0.62;;;;;23.90;38.60;;;;;;2244321;61;7262;-68
2020/12/31 01:59:57;463170.00;1.54;798.44;0.00;0.00;0.62;;;;;23.80;38.50;;;;;;2242337;61;7410;-68
2020/12/31 02:02:25;976116.00;3.25;1690.22;18945.00;0.06;33.44;;;;;23.90;38.60;;;;;;2244023;61;6007;-69
2020/12/31 02:04:53;1172021.00;3.91;2039.71;40595.00;0.14;70.92;;;;;23.80;38.50;;;;;;2243449;61;6041;-69
2020/12/31 02:07:21;1381463.00;4.60;2421.99;12904.00;0.04;22.98;;;;;23.80;38.50;;;;;;2236496;61;7573;-68
2020/12/31 02:09:47;1013102.00;3.38;1755.69;27895.00;0.09;48.94;;;;;23.80;38.50;;;;;;2243487;61;7287;-68
2020/12/31 02:12:14;478816.00;1.60;825.36;74.00;0.00;0.75;;;;;23.90;38.60;;;;;;2238607;61;7486;-69
2020/12/31 02:14:49;614217.00;2.05;1058.77;20412.00;0.07;35.98;;;;;23.90;38.50;;;;;;2243741;61;7501;-69
2020/12/31 02:17:15;883411.00;2.94;1527.00;14100.00;0.05;25.05;;;;;23.80;38.50;;;;;;2247063;61;8078;-68
2020/12/31 02:19:42;583194.00;1.94;1005.21;29506.00;0.10;51.73;;;;;23.80;38.40;;;;;;2240110;61;7422;-68
2020/12/31 02:22:11;480722.00;1.60;828.64;0.00;0.00;0.62;;;;;23.80;38.40;;;;;;2239076;61;7546;-69
2020/12/31 02:24:37;837034.00;2.79;1445.79;35683.00;0.12;62.42;;;;;23.80;38.50;;;;;;2243514;61;7528;-69
2020/12/31 02:27:08;1062153.00;3.54;1842.87;31807.00;0.11;55.71;;;;;23.80;38.50;;;;;;2245109;61;7958;-69
2020/12/31 02:29:34;946468.00;3.15;1637.88;11479.00;0.04;20.51;;;;;23.80;38.50;;;;;;2239337;61;7674;-69
2020/12/31 02:32:01;405092.00;1.35;698.56;0.00;0.00;0.62;;;;;23.80;38.40;;;;;;2242826;61;7685;-69
2020/12/31 02:34:27;657235.00;2.19;1133.16;14275.00;0.05;25.35;;;;;23.80;38.50;;;;;;2244910;61;7655;-68
2020/12/31 02:36:53;637972.00;2.13;1099.83;9487.00;0.03;17.06;;;;;23.80;38.40;;;;;;2244415;61;7572;-69
2020/12/31 02:39:20;484584.00;1.62;835.29;18001.00;0.06;31.81;;;;;23.80;38.40;;;;;;2245745;61;7550;-69
2020/12/31 02:41:46;754740.00;2.52;1302.30;0.00;0.00;0.62;;;;;23.80;38.40;;;;;;2243948;61;7152;-69
2020/12/31 02:44:13;498052.00;1.66;858.47;75044.00;0.25;130.48;;;;;23.80;38.40;;;;;;2244813;61;7513;-69
2020/12/31 02:46:40;482235.00;1.61;831.24;0.00;0.00;0.62;;;;;23.80;38.40;;;;;;2248117;61;7339;-68
2020/12/31 02:49:07;145828.00;0.49;252.62;6451.00;0.02;11.80;;;;;23.80;38.40;;;;;;2241730;61;7617;-69
2020/12/31 02:51:34;614753.00;2.05;1059.70;0.00;0.00;0.62;;;;;23.80;38.40;;;;;;2244149;61;7835;-69
2020/12/31 02:54:01;719116.00;2.40;1240.40;13636.00;0.05;24.25;;;;;23.80;38.40;;;;;;2241019;61;7236;-69
2020/12/31 02:56:27;562924.00;1.88;970.24;20757.00;0.07;36.58;;;;;23.70;38.30;;;;;;2245544;61;7119;-68
2020/12/31 02:58:53;563212.00;1.88;970.74;25928.00;0.09;45.53;;;;;23.80;38.30;;;;;;2244646;61;7541;-68
2020/12/31 03:01:22;444723.00;1.48;766.71;13989.00;0.05;24.86;;;;;23.80;38.30;;;;;;2244382;61;7519;-69
2020/12/31 03:03:49;203908.00;0.68;352.65;0.00;0.00;0.62;;;;;23.80;38.30;;;;;;2244488;61;4052;-68
2020/12/31 03:06:16;1284046.00;4.28;2242.94;20232.00;0.07;35.67;;;;;23.70;38.20;;;;;;2231959;61;9121;-69
2020/12/31 03:08:43;857770.00;2.86;1482.07;0.00;0.00;0.62;;;;;23.70;38.20;;;;;;2239307;61;8605;-69
2020/12/31 03:11:23;346706.00;1.16;598.20;0.00;0.00;0.62;;;;;23.70;38.20;;;;;;2244581;61;7551;-69
2020/12/31 03:13:50;318080.00;1.06;549.00;0.00;0.00;0.62;;;;;23.70;38.10;;;;;;2244254;61;7424;-68
2020/12/31 03:16:23;185618.00;0.62;321.16;0.00;0.00;0.62;;;;;23.70;38.10;;;;;;2242175;61;7340;-68
2020/12/31 03:18:49;288993.00;0.96;499.00;0.00;0.00;0.62;;;;;23.70;38.10;;;;;;2243921;61;7556;-69
2020/12/31 03:21:22;733584.00;2.45;1265.53;28977.00;0.10;50.81;;;;;23.70;38.10;;;;;;2245835;61;7428;-69
2020/12/31 03:23:52;410706.00;1.37;708.21;17961.00;0.06;31.74;;;;;23.70;38.10;;;;;;2243654;61;7549;-70
2020/12/31 03:26:18;321267.00;1.07;554.48;0.00;0.00;0.62;;;;;23.70;38.10;;;;;;2243885;61;7551;-70
2020/12/31 03:28:44;737334.00;2.46;1272.04;33154.00;0.11;58.04;;;;;23.70;38.10;;;;;;2245274;61;7708;-68
2020/12/31 03:31:11;518985.00;1.73;894.52;0.00;0.00;0.62;;;;;23.70;38.10;;;;;;2248343;61;7451;-68
2020/12/31 03:33:37;377217.00;1.26;650.64;10253.00;0.03;18.39;;;;;23.70;38.10;;;;;;2242188;61;7546;-69
2020/12/31 03:36:04;375931.00;1.25;648.43;0.00;0.00;0.62;;;;;23.70;38.10;;;;;;2244617;61;7346;-69
2020/12/31 03:38:33;493397.00;1.64;850.46;0.00;0.00;0.62;;;;;23.70;38.30;;;;;;2245612;61;7664;-69
2020/12/31 03:41:03;458016.00;1.53;789.57;12682.00;0.04;22.60;;;;;23.70;38.00;;;;;;2243968;61;7400;-68
2020/12/31 03:43:30;449278.00;1.50;774.54;30398.00;0.10;53.27;;;;;23.70;38.10;;;;;;2240676;61;7660;-69
2020/12/31 03:45:57;484281.00;1.61;834.77;10961.00;0.04;19.61;;;;;23.70;38.10;;;;;;2241918;61;7727;-68
2020/12/31 03:48:27;576164.00;1.92;993.08;0.00;0.00;0.62;;;;;23.70;38.10;;;;;;2240566;61;7706;-68
2020/12/31 03:50:57;370555.00;1.24;639.19;14453.00;0.05;25.66;;;;;23.70;38.10;;;;;;2245145;61;6457;-69
2020/12/31 03:53:24;381554.00;1.27;658.10;27312.00;0.09;47.93;;;;;23.70;38.00;;;;;;2241201;61;7862;-70
2020/12/31 03:55:50;245518.00;0.82;424.24;0.00;0.00;0.62;;;;;23.70;38.00;;;;;;2244058;61;6253;-69
2020/12/31 03:58:16;116730888.00;389.10;64428696.00;64864.00;0.22;112.88;;;;;23.70;38.00;;;;;;2240638;61;7259;-69
2020/12/31 04:00:43;226848.00;0.76;392.13;0.00;0.00;0.62;;;;;23.70;38.00;;;;;;2244957;61;7499;-69
2020/12/31 04:03:09;328058.00;1.09;566.15;0.00;0.00;0.62;;;;;23.70;38.00;;;;;;2240100;61;7612;-68
2020/12/31 04:05:35;816291.00;2.72;1409.55;79380.00;0.26;137.97;;;;;23.70;38.00;;;;;;2241009;61;7459;-68
2020/12/31 04:08:02;505659.00;1.69;871.57;41848.00;0.14;73.09;;;;;23.70;38.60;;;;;;2241139;61;7672;-70
2020/12/31 04:10:29;414522.00;1.38;714.77;14264.00;0.05;25.34;;;;;23.70;38.00;;;;;;2241899;61;7895;-69
2020/12/31 04:12:55;542020.00;1.81;934.20;8304.00;0.03;15.01;;;;;23.70;38.00;;;;;;2244662;61;7721;-69
2020/12/31 04:15:21;1338424.00;4.46;2342.60;103955.00;0.35;180.40;;;;;23.60;37.90;;;;;;2247272;61;7708;-69
2020/12/31 04:17:47;380112.00;1.27;655.62;42302.00;0.14;73.87;;;;;23.60;38.00;;;;;;2242592;61;7385;-69
2020/12/31 04:20:14;515185.00;1.72;887.97;46700.00;0.16;81.48;;;;;23.60;37.90;;;;;;2244004;61;8013;-69
2020/12/31 04:22:40;648296.00;2.16;1117.69;2298.00;0.01;4.60;;;;;23.60;37.80;;;;;;2243893;61;8538;-69
2020/12/31 04:25:06;532880.00;1.78;918.45;0.00;0.00;0.62;;;;;23.60;37.80;;;;;;2244409;61;7306;-69
2020/12/31 04:27:33;529772.00;1.77;913.10;60910.00;0.20;106.05;;;;;23.60;37.90;;;;;;2240826;61;7528;-70
2020/12/31 04:29:59;600666.00;2.00;1035.37;0.00;0.00;0.62;;;;;23.60;37.80;;;;;;2244339;61;7408;-68
2020/12/31 04:32:25;687313.00;2.29;1185.24;32197.00;0.11;56.39;;;;;23.60;38.00;;;;;;2240425;61;8545;-69
2020/12/31 04:34:51;447805.00;1.49;772.01;0.00;0.00;0.62;;;;;23.60;37.80;;;;;;2242943;61;7653;-69
2020/12/31 04:37:18;738218.00;2.46;1273.58;53641.00;0.18;93.48;;;;;23.60;37.90;;;;;;2240904;61;7555;-69
2020/12/31 04:39:44;707758.00;2.36;1220.69;21700.00;0.07;38.21;;;;;23.60;37.80;;;;;;2247974;61;7657;-68
2020/12/31 04:42:10;405520.00;1.35;699.29;0.00;0.00;0.62;;;;;23.60;37.80;;;;;;2239758;61;7621;-69
2020/12/31 04:44:37;1251777.00;4.17;2184.12;73859.00;0.25;128.43;;;;;23.60;37.80;;;;;;2248178;61;11243;-69
2020/12/31 04:47:05;340181.00;1.13;586.98;9483.00;0.03;17.05;;;;;23.60;37.80;;;;;;2245489;61;6220;-69
2020/12/31 04:49:48;577294.00;1.92;995.03;0.00;0.00;0.62;;;;;23.60;37.80;;;;;;2246281;61;7523;-69
2020/12/31 04:52:15;409975.00;1.37;706.95;14584.00;0.05;25.89;;;;;23.60;37.80;;;;;;2247035;61;7408;-70
2020/12/31 04:54:43;754032.00;2.51;1301.07;46129.00;0.15;80.49;;;;;23.60;37.80;;;;;;2245673;61;7346;-69
2020/12/31 04:57:09;575439.00;1.92;991.83;26552.00;0.09;46.61;;;;;23.60;37.80;;;;;;2245840;61;7444;-69
2020/12/31 04:59:36;363399.00;1.21;626.89;30903.00;0.10;54.15;;;;;23.60;37.70;;;;;;2244562;61;7549;-68
2020/12/31 05:02:06;403725.00;1.35;696.21;36716.00;0.12;64.21;;;;;23.60;37.70;;;;;;2248153;61;7565;-68
2020/12/31 05:04:36;506693.00;1.69;873.35;21972.00;0.07;38.68;;;;;23.60;37.80;;;;;;2247452;61;7358;-68
2020/12/31 05:07:03;541286.00;1.80;932.94;0.00;0.00;0.62;;;;;23.60;37.70;;;;;;2244998;61;7353;-68
2020/12/31 05:09:29;485695.00;1.62;837.20;27888.00;0.09;48.93;;;;;23.60;38.20;;;;;;2241164;61;7610;-68
2020/12/31 05:11:56;229106.00;0.76;396.01;0.00;0.00;0.62;;;;;23.60;37.70;;;;;;2243234;61;7452;-68
2020/12/31 05:14:30;451623.00;1.51;778.57;0.00;0.00;0.62;;;;;23.60;37.70;;;;;;2238657;61;7641;-68
2020/12/31 05:17:14;631599.00;2.11;1088.81;29043.00;0.10;50.93;;;;;23.60;37.70;;;;;;2238815;61;7416;-69
2020/12/31 05:19:41;208864.00;0.70;361.18;0.00;0.00;0.62;;;;;23.60;37.60;;;;;;2245282;61;7344;-68
2020/12/31 05:22:19;132860.00;0.44;230.26;0.00;0.00;0.62;;;;;23.60;37.60;;;;;;2247448;61;7355;-68
2020/12/31 05:24:47;533580.00;1.78;919.66;12236.00;0.04;21.82;;;;;23.60;37.70;;;;;;2246161;61;7759;-68
2020/12/31 05:27:21;566030.00;1.89;975.60;28368.00;0.09;49.76;;;;;23.60;37.70;;;;;;2244225;61;7520;-68
2020/12/31 05:29:55;361396.00;1.20;623.45;13635.00;0.05;24.25;;;;;23.50;37.60;;;;;;2244795;61;5956;-68
2020/12/31 05:32:23;431967.00;1.44;744.77;28460.00;0.09;49.92;;;;;23.50;37.70;;;;;;2243951;61;7110;-69
2020/12/31 05:34:51;513034.00;1.71;884.27;4601.00;0.02;8.59;;;;;23.50;37.60;;;;;;2242941;61;7412;-68
2020/12/31 05:37:19;513420.00;1.71;884.93;19184.00;0.06;33.86;;;;;23.50;37.60;;;;;;2243547;61;7777;-68
2020/12/31 05:39:59;525917.00;1.75;906.46;20696.00;0.07;36.48;;;;;23.50;37.60;;;;;;2241512;61;6258;-68
2020/12/31 05:42:28;260568.00;0.87;450.13;21748.00;0.07;38.30;;;;;23.50;37.60;;;;;;2247052;61;6200;-68
2020/12/31 05:45:07;942189.00;3.14;1630.34;28800.00;0.10;50.51;;;;;23.50;37.60;;;;;;2244967;61;6266;-68
2020/12/31 05:47:35;470556.00;1.57;811.15;0.00;0.00;0.62;;;;;23.50;37.60;;;;;;2246609;61;7431;-67
2020/12/31 05:50:21;517735.00;1.73;892.36;11041.00;0.04;19.75;;;;;23.50;37.60;;;;;;2247668;61;7466;-67
2020/12/31 05:52:48;521496.00;1.74;898.84;16523.00;0.06;29.25;;;;;23.50;37.50;;;;;;2245420;61;7269;-68
2020/12/31 05:55:17;396957.00;1.32;684.57;0.00;0.00;0.62;;;;;23.50;37.60;;;;;;2243815;61;6094;-68
2020/12/31 05:57:48;553316.00;1.84;953.68;18388.00;0.06;32.48;;;;;23.50;37.50;;;;;;2243598;61;7202;-68
2020/12/31 06:00:17;409289.00;1.36;705.77;0.00;0.00;0.62;;;;;23.50;37.50;;;;;;2242591;61;7615;-68
2020/12/31 06:02:56;539151.00;1.80;929.26;11875.00;0.04;21.20;;;;;23.50;37.50;;;;;;2247897;61;7443;-67
2020/12/31 06:05:23;472930.00;1.58;815.23;9848.00;0.03;17.69;;;;;23.50;37.60;;;;;;2244075;61;7106;-68
2020/12/31 06:07:52;681867.00;2.27;1175.81;46795.00;0.16;81.64;;;;;23.50;37.50;;;;;;2240876;61;7602;-68
2020/12/31 06:10:23;711053.00;2.37;1226.41;65257.00;0.22;113.56;;;;;23.50;37.50;;;;;;2245319;61;7554;-68
2020/12/31 06:12:55;589324.00;1.96;1015.79;10283.00;0.03;18.44;;;;;23.50;37.50;;;;;;2244330;61;7399;-69
2020/12/31 06:15:29;366843.00;1.22;632.81;0.00;0.00;0.62;;;;;23.50;37.50;;;;;;2248140;61;5809;-68
2020/12/31 06:17:57;507329.00;1.69;874.44;9583.00;0.03;17.23;;;;;23.50;37.40;;;;;;2248932;61;5757;-68
2020/12/31 06:20:25;424197.00;1.41;731.41;0.00;0.00;0.62;;;;;23.40;37.30;;;;;;2247023;61;7507;-67
2020/12/31 06:22:59;415687.00;1.39;716.77;0.00;0.00;0.62;;;;;23.40;37.50;;;;;;2243658;61;5798;-68
2020/12/31 06:25:46;396291.00;1.32;683.43;0.00;0.00;0.62;;;;;23.40;37.50;;;;;;2247820;61;4111;-68
2020/12/31 06:28:21;433228.00;1.44;746.94;18880.00;0.06;33.33;;;;;23.40;37.50;;;;;;2245431;61;5866;-68
2020/12/31 06:30:55;423163.00;1.41;729.63;4212.00;0.01;7.92;;;;;23.40;37.50;;;;;;2246274;61;7131;-68
2020/12/31 06:33:42;506373.00;1.69;872.80;49159.00;0.16;85.73;;;;;23.40;37.50;;;;;;2246033;61;7462;-68
2020/12/31 06:36:08;320277.00;1.07;552.77;0.00;0.00;0.62;;;;;23.40;37.40;;;;;;2245737;61;7980;-69
2020/12/31 06:38:38;313558.00;1.05;541.23;14945.00;0.05;26.52;;;;;23.40;37.40;;;;;;2246026;61;7852;-67
2020/12/31 06:41:25;367663.00;1.23;634.22;0.00;0.00;0.62;;;;;23.40;37.30;;;;;;2244761;61;7667;-68
2020/12/31 06:44:06;410373.00;1.37;707.64;36777.00;0.12;64.31;;;;;23.40;37.30;;;;;;2246530;61;7442;-69
2020/12/31 06:46:41;423531.00;1.41;730.26;0.00;0.00;0.62;;;;;23.40;37.40;;;;;;2245953;61;7440;-69
2020/12/31 06:49:11;279881.00;0.93;483.33;0.00;0.00;0.62;;;;;23.40;37.40;;;;;;2250421;61;5560;-68
2020/12/31 06:51:37;119649392.00;398.83;69387664.00;37918.00;0.13;66.29;;;;;23.40;37.50;;;;;;2245090;61;4084;-69
2020/12/31 06:54:04;722679.00;2.41;1246.59;26194.00;0.09;45.99;;;;;23.40;37.40;;;;;;2245666;61;7297;-68
2020/12/31 06:56:43;116938480.00;389.79;64773340.00;0.00;0.00;0.62;;;;;23.30;37.40;;;;;;2242315;61;5609;-70
2020/12/31 06:59:30;492794.00;1.64;849.42;0.00;0.00;0.62;;;;;23.30;37.40;;;;;;2246410;61;7843;-71
2020/12/31 07:01:58;628760.00;2.10;1083.91;4736.00;0.02;8.83;;;;;23.30;37.40;;;;;;2243365;61;7541;-70
2020/12/31 07:04:29;464601.00;1.55;800.90;31741.00;0.11;55.60;;;;;23.30;37.50;;;;;;2241465;61;7646;-70
2020/12/31 07:06:57;233814.00;0.78;404.11;0.00;0.00;0.62;;;;;23.30;37.50;;;;;;2246857;61;6237;-71
2020/12/31 07:09:37;782800.00;2.61;1351.14;0.00;0.00;0.62;;;;;23.30;37.50;;;;;;2240810;61;7640;-71
2020/12/31 07:12:06;578596.00;1.93;997.28;16694.00;0.06;29.54;;;;;23.30;37.50;;;;;;2247278;61;7773;-70
2020/12/31 07:14:35;1103558.00;3.68;1916.79;0.00;0.00;0.62;;;;;23.30;37.50;;;;;;2242473;61;7453;-70
2020/12/31 07:17:04;491577.00;1.64;847.32;10411.00;0.03;18.66;;;;;23.30;37.70;;;;;;2241116;61;7397;-70
2020/12/31 07:19:42;1290253.00;4.30;2254.28;63150.00;0.21;109.92;;;;;23.30;37.80;;;;;;2243200;61;7397;-70
2020/12/31 07:22:17;1152888.00;3.84;2005.27;0.00;0.00;0.62;;;;;23.30;37.80;;;;;;2242795;61;5881;-71
2020/12/31 07:24:53;748812.00;2.50;1291.99;0.00;0.00;0.62;;;;;23.30;37.80;;;;;;2242449;61;7443;-71
2020/12/31 07:27:27;245442.00;0.82;424.11;23814.00;0.08;41.87;;;;;23.30;37.80;;;;;;2242331;61;7411;-71
2020/12/31 07:30:09;745653.00;2.49;1286.50;44532.00;0.15;77.73;;;;;23.30;37.80;;;;;;2242275;61;6134;-71
2020/12/31 07:33:00;421273.00;1.40;726.38;0.00;0.00;0.62;;;;;23.40;37.80;;;;;;2246020;61;7514;-69
2020/12/31 07:35:37;1194460.00;3.98;2080.21;60841.00;0.20;105.93;;;;;23.40;37.80;;;;;;2245893;61;7861;-70
2020/12/31 07:38:12;1018112.00;3.39;1764.58;32624.00;0.11;57.12;;;;;23.40;37.80;;;;;;2243308;61;7430;-69
2020/12/31 07:40:44;786258.00;2.62;1357.17;58548.00;0.20;101.97;;;;;23.40;37.80;;;;;;2246800;61;7379;-69
2020/12/31 07:43:16;1127498.00;3.76;1959.67;89369.00;0.30;155.22;;;;;23.50;37.90;;;;;;2240856;61;7634;-69
2020/12/31 07:45:52;1049608.00;3.50;1820.53;107165.00;0.36;185.94;;;;;23.50;37.80;;;;;;2246909;61;7477;-70
2020/12/31 07:48:21;610010.00;2.03;1051.51;0.00;0.00;0.62;;;;;23.60;37.80;;;;;;2246167;61;7790;-69
2020/12/31 07:50:57;729943.00;2.43;1259.20;80822.00;0.27;140.46;;;;;23.60;37.80;;;;;;2243541;61;7256;-69
2020/12/31 07:53:24;1053943.00;3.51;1828.25;63361.00;0.21;110.29;;;;;23.70;37.70;;;;;;2243054;61;7493;-69
2020/12/31 07:55:53;856618.00;2.86;1480.05;41763.00;0.14;72.94;;;;;23.70;37.60;;;;;;2242420;61;7107;-68
2020/12/31 07:58:21;1065003.00;3.55;1847.95;68358.00;0.23;118.92;;;;;23.80;37.60;;;;;;2244732;61;7614;-69
2020/12/31 08:01:05;971431.00;3.24;1681.94;34198.00;0.11;59.85;;;;;23.80;37.60;;;;;;2242646;61;8943;-68
2020/12/31 08:03:32;700197.00;2.33;1207.58;23008.00;0.08;40.48;;;;;23.90;37.50;;;;;;2243528;61;7768;-69
2020/12/31 08:06:03;1214146.00;4.05;2115.82;4845.00;0.02;9.02;;;;;24.00;37.50;;;;;;2240142;61;7550;-68
2020/12/31 08:08:31;627603.00;2.09;1081.91;15302.00;0.05;27.13;;;;;24.10;37.40;;;;;;2241050;61;7347;-69
2020/12/31 08:11:05;891950.00;2.97;1541.99;31033.00;0.10;54.37;;;;;24.20;37.40;;;;;;2242858;61;8314;-69
2020/12/31 08:13:35;1389904.00;4.63;2437.61;0.00;0.00;0.62;;;;;24.20;37.20;;;;;;2244003;61;7541;-69
2020/12/31 08:16:02;972221.00;3.24;1683.33;0.00;0.00;0.62;;;;;24.30;37.20;;;;;;2245253;61;7545;-69
2020/12/31 08:18:29;930131.00;3.10;1609.10;45191.00;0.15;78.87;;;;;24.30;37.10;;;;;;2243826;61;7276;-68
2020/12/31 08:21:04;971354.00;3.24;1681.80;18006.00;0.06;31.82;;;;;24.40;37.10;;;;;;2244238;61;7644;-69
2020/12/31 08:23:45;1390954.00;4.64;2439.56;111977.00;0.37;194.24;;;;;24.50;36.90;;;;;;2246328;61;9267;-69
2020/12/31 08:26:15;1685565.00;5.62;2997.41;134988.00;0.45;233.93;;;;;24.60;36.90;;;;;;2242360;61;7350;-68
2020/12/31 08:28:44;1372849.00;4.58;2406.06;96594.00;0.32;167.69;;;;;24.70;36.80;;;;;;2242062;61;7634;-68
2020/12/31 08:31:17;608537.00;2.03;1048.96;53015.00;0.18;92.40;;;;;24.70;36.70;;;;;;2251456;61;5761;-69
2020/12/31 08:33:44;1402313.00;4.67;2460.61;124120.00;0.41;215.19;;;;;24.80;36.70;;;;;;2246816;61;7843;-68
2020/12/31 08:36:22;1208444.00;4.03;2105.49;111617.00;0.37;193.62;;;;;24.80;36.70;;;;;;2247266;61;7122;-68
2020/12/31 08:38:58;890698.00;2.97;1539.79;21357.00;0.07;37.62;;;;;24.90;36.70;;;;;;2247537;61;7413;-68
2020/12/31 08:41:24;818006.00;2.73;1412.54;63631.00;0.21;110.75;;;;;24.90;36.70;;;;;;2247314;61;7688;-69
2020/12/31 08:43:53;840958.00;2.80;1452.65;43460.00;0.14;75.87;;;;;24.90;36.70;;;;;;2248797;61;7464;-69
2020/12/31 08:46:21;715275.00;2.38;1233.74;70684.00;0.24;122.94;;;;;24.90;36.70;;;;;;2247485;61;5903;-68
2020/12/31 08:48:57;993521.00;3.31;1721.00;102277.00;0.34;177.50;;;;;24.90;36.70;;;;;;2244299;61;7790;-69
2020/12/31 08:51:29;1305058.00;4.35;2281.36;152797.00;0.51;264.63;;;;;24.90;36.80;;;;;;2243961;61;7532;-68
2020/12/31 08:54:00;1169602.00;3.90;2035.36;111484.00;0.37;193.39;;;;;25.00;36.80;;;;;;2246891;61;7393;-68
2020/12/31 08:56:31;122508280.00;408.36;74486152.00;117417.00;0.39;203.63;;;;;25.00;36.80;;;;;;2246436;61;7786;-68
2020/12/31 08:59:30;960224.00;3.20;1662.15;53091.00;0.18;92.53;;;;;25.00;36.80;;;;;;2249155;61;7918;-68
2020/12/31 09:02:01;1350855.00;4.50;2365.48;138516.00;0.46;240.01;;;;;25.00;36.80;;;;;;2247777;61;7107;-68
2020/12/31 09:04:27;970012.00;3.23;1679.43;86476.00;0.29;150.22;;;;;25.10;36.80;;;;;;2247551;61;7493;-69
2020/12/31 09:06:57;623796.00;2.08;1075.33;40216.00;0.13;70.26;;;;;25.10;36.70;;;;;;2243558;61;7889;-68
2020/12/31 09:09:28;499102.00;1.66;860.28;50515.00;0.17;88.08;;;;;25.20;36.60;;;;;;2247570;61;7669;-69
2020/12/31 09:12:06;644592.00;2.15;1111.28;40132.00;0.13;70.12;;;;;25.30;36.50;;;;;;2247217;61;7354;-68
2020/12/31 09:14:37;655632.00;2.19;1130.38;15837.00;0.05;28.06;;;;;25.40;36.40;;;;;;2243568;61;7765;-68
2020/12/31 09:17:25;687276.00;2.29;1185.18;44213.00;0.15;77.18;;;;;25.40;36.30;;;;;;2245146;61;7568;-68
2020/12/31 09:19:52;606410.00;2.02;1045.29;69304.00;0.23;120.56;;;;;25.50;36.30;;;;;;2243561;61;7719;-69
2020/12/31 09:22:20;824243.00;2.75;1423.44;34960.00;0.12;61.17;;;;;25.50;36.30;;;;;;2246135;61;7546;-69
2020/12/31 09:24:46;880178.00;2.93;1521.33;37306.00;0.12;65.23;;;;;25.50;36.30;;;;;;2247783;61;5901;-69
2020/12/31 09:27:22;743126.00;2.48;1282.11;73666.00;0.25;128.09;;;;;25.50;36.20;;;;;;2245515;61;7078;-69
2020/12/31 09:29:58;674470.00;2.25;1162.99;43472.00;0.14;75.90;;;;;25.50;36.20;;;;;;2249157;61;7822;-68
2020/12/31 09:32:25;782491.00;2.61;1350.60;101109.00;0.34;175.49;;;;;25.60;36.20;;;;;;2246576;61;7554;-68
2020/12/31 09:34:51;503755.00;1.68;868.29;63723.00;0.21;110.91;;;;;25.60;36.10;;;;;;2246412;61;7450;-68
2020/12/31 09:37:18;981936.00;3.27;1700.50;100047.00;0.33;173.65;;;;;25.70;36.10;;;;;;2246793;61;7641;-68